Johann Essberger — CQKG — position and weather

sailwx.info

Track history (hours):
 
Tides and Currents Weather Stations Pressure Air Temp Water Temp Dewpoint Dewpoint Depression Visibility Wind Speed Wind Dir Waves Ship Positions

Johann Essberger

Last reported at 2015-Jul-05 09:27 UTC. Time now 2015-Jul-05 13:23 UTC.
Position N 55°37' E 019°56'.

Length 100 m; draft 7.3 m.

Type: Ship (hazmat cat B). MMSI: 255804460.

Date/timePositionNaut miles runAvg speedWind from/ knotsBaromVisibWave heightAir tempDewpointWater temp
2015-Jul-05 09:27N 55°37' E 019°56'910.6
2015-Jul-05 08:33N 55°35' E 019°40'1110.6
2015-Jul-05 07:33N 55°32' E 019°22'1110.8
2015-Jul-05 06:32N 55°30' E 019°02'3311.0
2015-Jul-05 03:33N 55°22' E 018°07'1210.9
2015-Jul-05 02:28N 55°19' E 017°47'81 9.8
2015-Jul-04 18:12N 54°52' E 015°33'13 6.7
2015-Jul-04 16:16N 54°47' E 015°11'1 1.9
2015-Jul-04 15:33N 54°47' E 015°09'0 0.4
2015-Jul-04 14:33N 54°46' E 015°10'6 5.9
2015-Jul-04 13:32N 54°44' E 015°00'1110.8
2015-Jul-04 12:33N 54°40' E 014°43'1110.5
2015-Jul-04 11:29N 54°36' E 014°25'2210.3
2015-Jul-04 09:23N 54°45' E 013°51'910.7
2015-Jul-04 08:33N 54°49' E 013°38'1110.6
2015-Jul-04 07:32N 54°50' E 013°19'1110.6
2015-Jul-04 06:31N 54°48' E 013°01'1010.2
2015-Jul-04 05:33N 54°45' E 012°45'1110.3
2015-Jul-04 04:32N 54°39' E 012°29'1010.0
2015-Jul-04 03:33N 54°32' E 012°18'10 9.8
2015-Jul-04 02:33N 54°24' E 012°07'1110.7
2015-Jul-04 01:33N 54°25' E 011°49'1010.3
2015-Jul-04 00:33N 54°28' E 011°32'1010.2
2015-Jul-03 23:33N 54°33' E 011°17'10 9.6
2015-Jul-03 22:33N 54°35' E 011°00'1110.9
2015-Jul-03 21:33N 54°34' E 010°42'1110.5
2015-Jul-03 20:33N 54°31' E 010°24'1110.7
2015-Jul-03 19:33N 54°23' E 010°12'2 2.5
2015-Jul-03 18:34N 54°22' E 010°08'0 0.1
2015-Jul-03 17:34N 54°22' E 010°08'0 0.1
2015-Jul-03 16:34N 54°22' E 010°07'6 6.2
2015-Jul-03 15:33N 54°20' E 009°57'7 7.1
2015-Jul-03 14:32N 54°20' E 009°45'9 6.2
2015-Jul-03 13:10N 54°13' E 009°36'6 5.8
2015-Jul-03 12:10N 54°11' E 009°27'4 4.4
2015-Jul-03 11:19N 54°09' E 009°22'5 6.6
2015-Jul-03 10:33N 54°04' E 009°19'3 3.3
2015-Jul-03 09:33N 54°01' E 009°18'8 7.8
2015-Jul-03 08:33N 53°55' E 009°10'0 0.2
2015-Jul-03 07:31N 53°55' E 009°10'0 0.0
2015-Jul-02 14:32N 53°55' E 009°10'1 1.4
2015-Jul-02 13:33N 53°54' E 009°09'2 1.9
2015-Jul-02 12:34N 53°53' E 009°06'1212.1
2015-Jul-02 11:33N 53°51' E 008°45'4811.8
2015-Jul-02 07:31N 53°53' E 007°25'1211.2
2015-Jul-02 06:28N 53°50' E 007°05'1111.4
2015-Jul-02 05:33N 53°48' E 006°48'1010.4
2015-Jul-02 04:33N 53°46' E 006°31'10 9.7
2015-Jul-02 03:33N 53°43' E 006°15'9 9.3
2015-Jul-02 02:33N 53°40' E 006°00'9 9.2
2015-Jul-02 01:33N 53°37' E 005°45'9 9.3
2015-Jul-02 00:33N 53°34' E 005°31'9 9.1
2015-Jul-01 23:33N 53°32' E 005°16'10 9.5
2015-Jul-01 22:33N 53°28' E 005°01'1010.0
2015-Jul-01 21:33N 53°25' E 004°45'1010.0
2015-Jul-01 20:33N 53°16' E 004°37'1111.0
2015-Jul-01 19:33N 53°06' E 004°28'1111.2
2015-Jul-01 18:33N 52°57' E 004°19'1211.6
2015-Jul-01 17:33N 52°47' E 004°09'1212.1
2015-Jul-01 16:33N 52°37' E 003°56'4711.3
2015-Jul-01 12:24N 51°55' E 003°22'1011.2
2015-Jul-01 11:28N 51°46' E 003°15'1011.3
2015-Jul-01 10:33N 51°37' E 003°23'1111.6
2015-Jul-01 09:33N 51°27' E 003°33'9 8.5
2015-Jul-01 08:33N 51°22' E 003°44'1110.9
2015-Jul-01 07:33N 51°26' E 004°01'1111.2
2015-Jul-01 06:33N 51°21' E 004°16'5 4.7
2015-Jul-01 05:34N 51°16' E 004°17'2 2.3
2015-Jul-01 04:33N 51°17' E 004°13'1 0.0
2015-Jun-30 05:24N 51°16' E 004°13'2 2.1
2015-Jun-30 04:34N 51°16' E 004°16'0 0.0
2015-Jun-30 03:33N 51°16' E 004°16'0 0.0
2015-Jun-29 07:34N 51°16' E 004°16'1 0.5
2015-Jun-29 06:34N 51°16' E 004°17'2 2.0
2015-Jun-29 05:33N 51°18' E 004°17'9 8.7
2015-Jun-29 04:33N 51°22' E 004°05'7 6.6
2015-Jun-29 03:34N 51°22' E 003°55'1010.4
2015-Jun-29 02:33N 51°25' E 003°39'1110.7
2015-Jun-29 01:34N 51°32' E 003°26'1313.0
2015-Jun-29 00:32N 51°43' E 003°15'8 7.9
2015-Jun-28 23:34N 51°45' E 003°03'77 9.5
2015-Jun-28 15:32N 52°56' E 002°16'1111.1
2015-Jun-28 14:33N 53°03' E 002°02'1110.9
2015-Jun-28 13:33N 53°08' E 001°46'1111.1
2015-Jun-28 12:34N 53°12' E 001°29'5010.0
2015-Jun-28 07:34N 53°52' E 000°38'10 9.6
2015-Jun-28 06:34N 54°01' E 000°31'1110.5
2015-Jun-28 05:34N 54°10' E 000°22'1110.6
2015-Jun-28 04:33N 54°19' E 000°13'1111.0
2015-Jun-28 03:33N 54°29' E 000°03'1211.6
2015-Jun-28 02:33N 54°39' W 000°07'1111.5
2015-Jun-28 01:34N 54°48' W 000°19'1211.5
2015-Jun-28 00:33N 54°48' W 000°39'1211.9
2015-Jun-27 23:33N 54°42' W 000°57'5 0.1
2015-Jun-26 15:33N 54°40' W 001°04'0 0.0
2015-Jun-26 14:33N 54°40' W 001°04'0 0.1
2015-Jun-26 13:33N 54°40' W 001°04'0 0.0
2015-Jun-26 12:30N 54°40' W 001°04'0 0.0
2015-Jun-26 11:33N 54°40' W 001°04'0 0.0
2015-Jun-26 10:27N 54°40' W 001°04'0 0.0
2015-Jun-26 09:30N 54°40' W 001°04'0 0.0
2015-Jun-26 08:33N 54°40' W 001°04'1 0.7
2015-Jun-26 07:32N 54°40' W 001°06'5 0.2
2015-Jun-25 09:32N 54°40' W 000°57'  
Track history (hours):
 
Tides and Currents Weather Stations Pressure Air Temp Water Temp Dewpoint Dewpoint Depression Visibility Wind Speed Wind Dir Waves Ship Positions

Johann Essberger

Last reported at 2015-Jul-05 09:27 UTC. Time now 2015-Jul-05 13:23 UTC.
Position N 55°37' E 019°56'.

Length 100 m; draft 7.3 m.

Type: Ship (hazmat cat B). MMSI: 255804460.

Date/timePositionNaut miles runAvg speedWind from/ knotsBaromVisibWave heightAir tempDewpointWater temp
2015-Jul-05 09:27N 55°37' E 019°56'910.6
2015-Jul-05 08:33N 55°35' E 019°40'1110.6
2015-Jul-05 07:33N 55°32' E 019°22'1110.8
2015-Jul-05 06:32N 55°30' E 019°02'3311.0
2015-Jul-05 03:33N 55°22' E 018°07'1210.9
2015-Jul-05 02:28N 55°19' E 017°47'81 9.8
2015-Jul-04 18:12N 54°52' E 015°33'13 6.7
2015-Jul-04 16:16N 54°47' E 015°11'1 1.9
2015-Jul-04 15:33N 54°47' E 015°09'0 0.4
2015-Jul-04 14:33N 54°46' E 015°10'6 5.9
2015-Jul-04 13:32N 54°44' E 015°00'1110.8
2015-Jul-04 12:33N 54°40' E 014°43'1110.5
2015-Jul-04 11:29N 54°36' E 014°25'2210.3
2015-Jul-04 09:23N 54°45' E 013°51'910.7
2015-Jul-04 08:33N 54°49' E 013°38'1110.6
2015-Jul-04 07:32N 54°50' E 013°19'1110.6
2015-Jul-04 06:31N 54°48' E 013°01'1010.2
2015-Jul-04 05:33N 54°45' E 012°45'1110.3
2015-Jul-04 04:32N 54°39' E 012°29'1010.0
2015-Jul-04 03:33N 54°32' E 012°18'10 9.8
2015-Jul-04 02:33N 54°24' E 012°07'1110.7
2015-Jul-04 01:33N 54°25' E 011°49'1010.3
2015-Jul-04 00:33N 54°28' E 011°32'1010.2
2015-Jul-03 23:33N 54°33' E 011°17'10 9.6
2015-Jul-03 22:33N 54°35' E 011°00'1110.9
2015-Jul-03 21:33N 54°34' E 010°42'1110.5
2015-Jul-03 20:33N 54°31' E 010°24'1110.7
2015-Jul-03 19:33N 54°23' E 010°12'2 2.5
2015-Jul-03 18:34N 54°22' E 010°08'0 0.1
2015-Jul-03 17:34N 54°22' E 010°08'0 0.1
2015-Jul-03 16:34N 54°22' E 010°07'6 6.2
2015-Jul-03 15:33N 54°20' E 009°57'7 7.1
2015-Jul-03 14:32N 54°20' E 009°45'9 6.2
2015-Jul-03 13:10N 54°13' E 009°36'6 5.8
2015-Jul-03 12:10N 54°11' E 009°27'4 4.4
2015-Jul-03 11:19N 54°09' E 009°22'5 6.6
2015-Jul-03 10:33N 54°04' E 009°19'3 3.3
2015-Jul-03 09:33N 54°01' E 009°18'8 7.8
2015-Jul-03 08:33N 53°55' E 009°10'0 0.2
2015-Jul-03 07:31N 53°55' E 009°10'0 0.0
2015-Jul-02 14:32N 53°55' E 009°10'1 1.4
2015-Jul-02 13:33N 53°54' E 009°09'2 1.9
2015-Jul-02 12:34N 53°53' E 009°06'1212.1
2015-Jul-02 11:33N 53°51' E 008°45'4811.8
2015-Jul-02 07:31N 53°53' E 007°25'1211.2
2015-Jul-02 06:28N 53°50' E 007°05'1111.4
2015-Jul-02 05:33N 53°48' E 006°48'1010.4
2015-Jul-02 04:33N 53°46' E 006°31'10 9.7
2015-Jul-02 03:33N 53°43' E 006°15'9 9.3
2015-Jul-02 02:33N 53°40' E 006°00'9 9.2
2015-Jul-02 01:33N 53°37' E 005°45'9 9.3
2015-Jul-02 00:33N 53°34' E 005°31'9 9.1
2015-Jul-01 23:33N 53°32' E 005°16'10 9.5
2015-Jul-01 22:33N 53°28' E 005°01'1010.0
2015-Jul-01 21:33N 53°25' E 004°45'1010.0
2015-Jul-01 20:33N 53°16' E 004°37'1111.0
2015-Jul-01 19:33N 53°06' E 004°28'1111.2
2015-Jul-01 18:33N 52°57' E 004°19'1211.6
2015-Jul-01 17:33N 52°47' E 004°09'1212.1
2015-Jul-01 16:33N 52°37' E 003°56'4711.3
2015-Jul-01 12:24N 51°55' E 003°22'1011.2
2015-Jul-01 11:28N 51°46' E 003°15'1011.3
2015-Jul-01 10:33N 51°37' E 003°23'1111.6
2015-Jul-01 09:33N 51°27' E 003°33'9 8.5
2015-Jul-01 08:33N 51°22' E 003°44'1110.9
2015-Jul-01 07:33N 51°26' E 004°01'1111.2
2015-Jul-01 06:33N 51°21' E 004°16'5 4.7
2015-Jul-01 05:34N 51°16' E 004°17'2 2.3
2015-Jul-01 04:33N 51°17' E 004°13'1 0.0
2015-Jun-30 05:24N 51°16' E 004°13'2 2.1
2015-Jun-30 04:34N 51°16' E 004°16'0 0.0
2015-Jun-30 03:33N 51°16' E 004°16'0 0.0
2015-Jun-29 07:34N 51°16' E 004°16'1 0.5
2015-Jun-29 06:34N 51°16' E 004°17'2 2.0
2015-Jun-29 05:33N 51°18' E 004°17'9 8.7
2015-Jun-29 04:33N 51°22' E 004°05'7 6.6
2015-Jun-29 03:34N 51°22' E 003°55'1010.4
2015-Jun-29 02:33N 51°25' E 003°39'1110.7
2015-Jun-29 01:34N 51°32' E 003°26'1313.0
2015-Jun-29 00:32N 51°43' E 003°15'8 7.9
2015-Jun-28 23:34N 51°45' E 003°03'77 9.5
2015-Jun-28 15:32N 52°56' E 002°16'1111.1
2015-Jun-28 14:33N 53°03' E 002°02'1110.9
2015-Jun-28 13:33N 53°08' E 001°46'1111.1
2015-Jun-28 12:34N 53°12' E 001°29'5010.0
2015-Jun-28 07:34N 53°52' E 000°38'10 9.6
2015-Jun-28 06:34N 54°01' E 000°31'1110.5
2015-Jun-28 05:34N 54°10' E 000°22'1110.6
2015-Jun-28 04:33N 54°19' E 000°13'1111.0
2015-Jun-28 03:33N 54°29' E 000°03'1211.6
2015-Jun-28 02:33N 54°39' W 000°07'1111.5
2015-Jun-28 01:34N 54°48' W 000°19'1211.5
2015-Jun-28 00:33N 54°48' W 000°39'1211.9
2015-Jun-27 23:33N 54°42' W 000°57'5 0.1
2015-Jun-26 15:33N 54°40' W 001°04'0 0.0
2015-Jun-26 14:33N 54°40' W 001°04'0 0.1
2015-Jun-26 13:33N 54°40' W 001°04'0 0.0
2015-Jun-26 12:30N 54°40' W 001°04'0 0.0
2015-Jun-26 11:33N 54°40' W 001°04'0 0.0
2015-Jun-26 10:27N 54°40' W 001°04'0 0.0
2015-Jun-26 09:30N 54°40' W 001°04'0 0.0
2015-Jun-26 08:33N 54°40' W 001°04'1 0.7
2015-Jun-26 07:32N 54°40' W 001°06'5 0.2
2015-Jun-25 09:32N 54°40' W 000°57'  

Dump ship's entire track history